Time;durP1;ratioP1;P1;durP2;ratioP2;P2;SDS_P1;SDS_P2;PMS_P1;PMS_P2;Temp;Humidity;BMP_temperature;BMP_pressure;BME280_temperature;BME280_humidity;BME280_pressure;Samples;Min_cycle;Max_cycle;Signal;HPM_P1;HPM_P2
2022/01/01 00:02:09;;;;;;;27.40;22.73;;;9.60;99.90;;;;;;5057984;28;20185;-69
2022/01/01 00:04:37;;;;;;;27.20;21.42;;;9.60;99.90;;;;;;5058189;28;20173;-71
2022/01/01 00:07:05;;;;;;;28.83;22.23;;;9.60;99.90;;;;;;5057940;28;20189;-70
2022/01/01 00:09:33;;;;;;;35.72;25.30;;;9.60;99.90;;;;;;5075854;28;20284;-71
2022/01/01 00:12:02;;;;;;;31.75;25.48;;;9.60;99.90;;;;;;5057830;28;20181;-71
2022/01/01 00:14:34;;;;;;;23.83;19.92;;;9.70;99.90;;;;;;5057644;28;20232;-70
2022/01/01 00:17:04;;;;;;;27.02;20.33;;;9.70;99.90;;;;;;5057754;28;20185;-71
2022/01/01 00:19:35;;;;;;;27.92;20.17;;;9.80;99.90;;;;;;5057312;28;20177;-72
2022/01/01 00:22:03;;;;;;;25.50;19.50;;;9.80;99.90;;;;;;5057808;28;20190;-71
2022/01/01 00:24:32;;;;;;;23.98;19.25;;;9.90;99.90;;;;;;5057986;28;20208;-71
2022/01/01 00:27:03;;;;;;;23.70;18.13;;;9.90;99.90;;;;;;5057308;28;20181;-72
2022/01/01 00:29:32;;;;;;;24.15;17.33;;;10.00;99.90;;;;;;5057359;28;20213;-71
2022/01/01 00:32:01;;;;;;;23.02;18.08;;;10.00;99.90;;;;;;5057416;28;20185;-69
2022/01/01 00:34:33;;;;;;;22.48;17.52;;;10.00;99.90;;;;;;5057078;28;20181;-71
2022/01/01 00:37:04;;;;;;;20.35;16.67;;;10.10;99.90;;;;;;5057281;28;20189;-69
2022/01/01 00:39:32;;;;;;;23.08;16.58;;;10.10;99.90;;;;;;5056932;28;20177;-71
2022/01/01 00:41:58;;;;;;;24.10;17.98;;;10.10;99.90;;;;;;5057156;28;20192;-69
2022/01/01 00:44:30;;;;;;;34.38;25.90;;;10.10;99.90;;;;;;5057263;28;20177;-70
2022/01/01 00:46:58;;;;;;;25.65;19.13;;;10.20;99.90;;;;;;5057219;28;20221;-71
2022/01/01 00:49:25;;;;;;;31.30;20.58;;;10.20;99.90;;;;;;5057703;28;20787;-71
2022/01/01 00:51:56;;;;;;;23.33;19.70;;;10.10;99.90;;;;;;5057267;28;20549;-72
2022/01/01 00:54:22;;;;;;;27.55;20.17;;;10.10;99.90;;;;;;5056828;28;20189;-69
2022/01/01 00:56:48;;;;;;;22.25;16.90;;;10.10;99.90;;;;;;5056927;28;20185;-69
2022/01/01 00:59:17;;;;;;;30.15;19.13;;;10.00;99.90;;;;;;5056932;28;20200;-70
2022/01/01 01:01:44;;;;;;;21.00;17.88;;;9.90;99.90;;;;;;5057094;28;20276;-69
2022/01/01 01:04:11;;;;;;;23.83;18.85;;;9.90;99.90;;;;;;5074791;28;20673;-71
2022/01/01 01:06:42;;;;;;;23.52;17.63;;;9.90;99.90;;;;;;5056858;28;20220;-69
2022/01/01 01:09:09;;;;;;;23.23;18.60;;;9.90;99.90;;;;;;5056809;28;20224;-71
2022/01/01 01:11:43;;;;;;;21.08;18.27;;;9.80;99.90;;;;;;5056646;28;20733;-69
2022/01/01 01:14:18;;;;;;;28.20;18.25;;;9.90;99.90;;;;;;5053259;28;20237;-70
2022/01/01 01:16:48;;;;;;;24.02;19.45;;;9.90;99.90;;;;;;5053374;28;20205;-69
2022/01/01 01:19:26;;;;;;;22.85;19.00;;;9.90;99.90;;;;;;5053683;28;20202;-69
2022/01/01 01:22:01;;;;;;;25.25;19.48;;;9.90;99.90;;;;;;5052897;28;20285;-69
2022/01/01 01:24:28;;;;;;;23.98;19.45;;;9.90;99.90;;;;;;5053673;28;20219;-69
2022/01/01 01:27:00;;;;;;;29.23;20.65;;;9.90;99.90;;;;;;5053320;28;20204;-69
2022/01/01 01:29:26;;;;;;;25.08;21.33;;;9.90;99.90;;;;;;5053079;28;20256;-72
2022/01/01 01:31:54;;;;;;;27.40;19.58;;;9.80;99.90;;;;;;5052275;28;20190;-71
2022/01/01 01:34:22;;;;;;;27.27;22.60;;;9.90;99.90;;;;;;5053169;28;20177;-71
2022/01/01 01:36:56;;;;;;;27.27;20.80;;;9.80;99.90;;;;;;5053040;28;20186;-71
2022/01/01 01:39:29;;;;;;;25.25;20.63;;;9.80;99.90;;;;;;5052893;28;20182;-71
2022/01/01 01:42:01;;;;;;;26.88;19.30;;;9.70;99.90;;;;;;5052917;28;20217;-69
2022/01/01 01:44:32;;;;;;;26.88;20.92;;;9.70;99.90;;;;;;5053043;28;20174;-73
2022/01/01 01:47:02;;;;;;;26.88;20.83;;;9.70;99.90;;;;;;5052872;28;20182;-71
2022/01/01 01:49:35;;;;;;;25.88;20.58;;;9.70;99.90;;;;;;5052986;28;20228;-69
2022/01/01 01:52:02;;;;;;;24.98;20.17;;;9.70;99.90;;;;;;5052676;28;20288;-71
2022/01/01 01:54:30;;;;;;;28.33;20.67;;;9.70;99.90;;;;;;5053000;28;20181;-71
2022/01/01 01:56:58;;;;;;;28.45;20.42;;;9.70;99.90;;;;;;5052517;28;20193;-71
2022/01/01 01:59:27;;;;;;;28.63;21.83;;;9.70;99.90;;;;;;5053109;28;20224;-71
2022/01/01 02:01:53;;;;;;;25.08;19.70;;;9.70;99.90;;;;;;5052678;28;20197;-69
2022/01/01 02:04:22;;;;;;;26.45;20.90;;;9.70;99.90;;;;;;5054038;28;20283;-69
2022/01/01 02:06:49;;;;;;;26.40;20.30;;;9.70;99.90;;;;;;5052496;28;20185;-71
2022/01/01 02:09:25;;;;;;;23.02;19.33;;;9.70;99.90;;;;;;5052595;28;20571;-71
2022/01/01 02:11:53;;;;;;;23.95;19.25;;;9.70;99.90;;;;;;5052657;28;20182;-71
2022/01/01 02:14:50;;;;;;;23.70;19.33;;;9.70;99.90;;;;;;5052547;28;20244;-71
2022/01/01 02:17:17;;;;;;;26.35;20.58;;;9.70;99.90;;;;;;5052491;28;20655;-69
2022/01/01 02:20:19;;;;;;;25.52;18.85;;;9.70;99.90;;;;;;5052329;28;20182;-72
2022/01/01 02:22:58;;;;;;;26.13;19.58;;;9.70;99.90;;;;;;5054054;28;20560;-69
2022/01/01 02:25:32;;;;;;;24.08;19.70;;;9.60;99.90;;;;;;5052343;28;20205;-72
2022/01/01 02:28:06;;;;;;;25.67;20.15;;;9.60;99.90;;;;;;5052104;28;20240;-69
2022/01/01 02:30:35;;;;;;;25.48;19.80;;;9.50;99.90;;;;;;5052123;28;20209;-71
2022/01/01 02:33:03;;;;;;;24.20;19.35;;;9.50;99.90;;;;;;5052498;28;20202;-69
2022/01/01 02:35:31;;;;;;;29.02;20.52;;;9.50;99.90;;;;;;5052511;28;20173;-69
2022/01/01 02:38:05;;;;;;;27.25;20.92;;;9.50;99.90;;;;;;5052063;28;20596;-69
2022/01/01 02:40:31;;;;;;;26.38;19.70;;;9.50;99.90;;;;;;5052120;28;20256;-71
2022/01/01 02:43:04;;;;;;;27.95;20.23;;;9.50;99.90;;;;;;5055164;28;20198;-71
2022/01/01 02:45:33;;;;;;;22.30;18.45;;;9.50;99.90;;;;;;5056049;28;20181;-69
2022/01/01 02:47:59;;;;;;;21.63;17.30;;;9.50;99.90;;;;;;5056213;28;20223;-69
2022/01/01 02:50:28;;;;;;;21.20;17.02;;;9.50;99.90;;;;;;5055972;28;20449;-69
2022/01/01 02:52:57;;;;;;;21.15;17.60;;;9.50;99.90;;;;;;5056091;28;20663;-72
2022/01/01 02:55:24;;;;;;;22.77;17.88;;;9.50;99.90;;;;;;5055973;28;20220;-69
2022/01/01 02:57:53;;;;;;;23.05;18.00;;;9.60;99.90;;;;;;5056054;28;20202;-73
2022/01/01 03:00:22;;;;;;;20.20;17.92;;;9.60;99.90;;;;;;5056078;28;20181;-71
2022/01/01 03:02:51;;;;;;;22.00;16.10;;;9.60;99.90;;;;;;5055647;28;20202;-69
2022/01/01 03:05:18;;;;;;;19.27;16.17;;;9.60;99.90;;;;;;5055692;28;20182;-71
2022/01/01 03:07:47;;;;;;;22.63;17.33;;;9.60;99.90;;;;;;5055850;28;20202;-72
2022/01/01 03:10:17;;;;;;;19.35;15.52;;;9.60;99.90;;;;;;5055794;28;20280;-69
2022/01/01 03:12:43;;;;;;;16.42;14.30;;;9.70;99.90;;;;;;5055544;28;20295;-70
2022/01/01 03:15:13;;;;;;;14.88;13.18;;;9.70;99.90;;;;;;5055714;28;20235;-69
2022/01/01 03:17:43;;;;;;;17.10;13.50;;;9.70;99.90;;;;;;5055614;28;20210;-69
2022/01/01 03:20:12;;;;;;;15.93;13.30;;;9.70;99.90;;;;;;5055365;28;20174;-69
2022/01/01 03:22:43;;;;;;;17.48;13.52;;;9.80;99.90;;;;;;5055383;28;20210;-69
2022/01/01 03:25:11;;;;;;;18.08;12.93;;;9.90;99.90;;;;;;5057048;28;20159;-69
2022/01/01 03:27:43;;;;;;;15.45;12.45;;;9.90;99.90;;;;;;5055144;28;20204;-69
2022/01/01 03:30:11;;;;;;;14.27;12.45;;;9.90;99.90;;;;;;5055263;28;20578;-73
2022/01/01 03:32:38;;;;;;;16.10;13.00;;;10.00;99.90;;;;;;5055345;28;20202;-71
2022/01/01 03:35:06;;;;;;;15.80;13.10;;;10.00;99.90;;;;;;5055344;28;20182;-71
2022/01/01 03:37:38;;;;;;;14.15;11.98;;;10.00;99.90;;;;;;5054973;28;20279;-71
2022/01/01 03:40:05;;;;;;;13.95;12.43;;;10.10;99.90;;;;;;5055221;28;20753;-71
2022/01/01 03:42:48;;;;;;;15.88;13.23;;;10.10;99.90;;;;;;5056321;28;20209;-71
2022/01/01 03:45:15;;;;;;;20.77;14.48;;;10.10;99.90;;;;;;5055231;28;20178;-71
2022/01/01 03:47:42;;;;;;;15.95;13.05;;;10.20;99.90;;;;;;5054951;28;20296;-72
2022/01/01 03:50:10;;;;;;;15.98;13.38;;;10.20;99.90;;;;;;5054962;28;20678;-72
2022/01/01 03:52:53;;;;;;;15.23;13.60;;;10.20;99.90;;;;;;5056566;28;20201;-69
2022/01/01 03:55:23;;;;;;;15.75;12.82;;;10.20;99.90;;;;;;5054663;28;20192;-69
2022/01/01 03:57:57;;;;;;;18.10;12.82;;;10.20;99.90;;;;;;5054851;28;20201;-73
2022/01/01 04:00:25;;;;;;;15.20;12.93;;;10.20;99.90;;;;;;5054823;28;20177;-69
2022/01/01 04:02:56;;;;;;;17.02;13.25;;;10.30;99.90;;;;;;5054712;28;20227;-69
2022/01/01 04:05:29;;;;;;;15.38;13.07;;;10.30;99.90;;;;;;5055154;28;20210;-71
2022/01/01 04:07:58;;;;;;;15.50;13.13;;;10.30;99.90;;;;;;5054945;28;20288;-72
2022/01/01 04:10:31;;;;;;;15.25;12.60;;;10.30;99.90;;;;;;5053752;28;20657;-71
2022/01/01 04:12:58;;;;;;;18.17;14.10;;;10.30;99.90;;;;;;5054253;28;20569;-71
2022/01/01 04:15:28;;;;;;;17.20;13.75;;;10.30;99.90;;;;;;5054512;28;20265;-69
2022/01/01 04:17:59;;;;;;;16.10;12.35;;;10.30;99.90;;;;;;5054166;28;20247;-69
2022/01/01 04:20:34;;;;;;;18.95;14.85;;;10.30;99.90;;;;;;5054519;28;20208;-69
2022/01/01 04:23:01;;;;;;;16.60;12.98;;;10.30;99.90;;;;;;5054533;28;20209;-71
2022/01/01 04:25:28;;;;;;;18.60;13.30;;;10.30;99.90;;;;;;5054286;28;20647;-71
2022/01/01 04:27:56;;;;;;;16.88;12.25;;;10.30;99.90;;;;;;5053945;28;20217;-71
2022/01/01 04:30:28;;;;;;;15.13;12.77;;;10.30;99.90;;;;;;5054227;28;20262;-71
2022/01/01 04:33:01;;;;;;;13.82;11.95;;;10.30;99.90;;;;;;5054147;28;20202;-71
2022/01/01 04:35:29;;;;;;;17.92;13.88;;;10.30;99.90;;;;;;5054183;28;20189;-69
2022/01/01 04:38:25;;;;;;;17.55;14.25;;;10.30;99.90;;;;;;5054089;28;20202;-71
2022/01/01 04:40:54;;;;;;;17.67;13.25;;;10.30;99.90;;;;;;5054415;28;20543;-69
2022/01/01 04:43:23;;;;;;;14.02;11.30;;;10.30;99.90;;;;;;5055655;28;20266;-69
2022/01/01 04:45:53;;;;;;;16.17;12.60;;;10.40;99.90;;;;;;5054079;28;20514;-69
2022/01/01 04:48:22;;;;;;;13.38;11.55;;;10.40;99.90;;;;;;5055845;28;20577;-71
2022/01/01 04:50:52;;;;;;;15.90;12.35;;;10.40;99.90;;;;;;5053789;28;20209;-71
2022/01/01 04:53:19;;;;;;;14.18;11.75;;;10.40;99.90;;;;;;5053985;28;20649;-71
2022/01/01 04:55:49;;;;;;;15.70;12.70;;;10.40;99.90;;;;;;5053771;28;20185;-69
2022/01/01 04:58:16;;;;;;;17.27;14.45;;;10.40;99.90;;;;;;5053852;28;20339;-71
2022/01/01 05:00:45;;;;;;;15.98;12.95;;;10.40;99.90;;;;;;5053393;28;20284;-71
2022/01/01 05:03:12;;;;;;;15.45;13.00;;;10.50;99.90;;;;;;5053807;28;20289;-71
2022/01/01 05:05:43;;;;;;;18.38;13.77;;;10.50;99.90;;;;;;5053739;28;20193;-68
2022/01/01 05:08:10;;;;;;;15.88;13.75;;;10.50;99.90;;;;;;5053133;28;20209;-69
2022/01/01 05:10:36;;;;;;;16.50;13.13;;;10.50;99.90;;;;;;5053591;28;20581;-69
2022/01/01 05:13:02;;;;;;;16.83;13.20;;;10.50;99.90;;;;;;5052867;28;20241;-69
2022/01/01 05:15:30;;;;;;;16.55;13.10;;;10.50;99.90;;;;;;5053375;28;20435;-69
2022/01/01 05:17:57;;;;;;;17.77;13.63;;;10.50;99.90;;;;;;5053513;28;20221;-71
2022/01/01 05:20:26;;;;;;;16.17;13.18;;;10.50;99.90;;;;;;5053376;28;20264;-71
2022/01/01 05:23:04;;;;;;;17.58;13.27;;;10.50;99.90;;;;;;5052979;28;20667;-71
2022/01/01 05:25:39;;;;;;;18.15;13.40;;;10.50;99.90;;;;;;5053468;28;20552;-71
2022/01/01 05:28:10;;;;;;;16.23;12.80;;;10.60;99.90;;;;;;5053341;28;20201;-69
2022/01/01 05:30:37;;;;;;;16.55;12.02;;;10.60;99.90;;;;;;5053164;28;20210;-69
2022/01/01 05:33:15;;;;;;;13.27;11.75;;;10.60;99.90;;;;;;5053283;28;20213;-71
2022/01/01 05:35:43;;;;;;;15.68;12.25;;;10.60;99.90;;;;;;5052964;28;20205;-68
2022/01/01 05:38:10;;;;;;;15.32;12.55;;;10.70;99.90;;;;;;5053182;28;20218;-69
2022/01/01 05:40:36;;;;;;;13.93;10.77;;;10.70;99.90;;;;;;5053004;28;20642;-71
2022/01/01 05:43:02;;;;;;;13.48;11.38;;;10.70;99.90;;;;;;5053139;28;20216;-73
2022/01/01 05:45:31;;;;;;;10.88;9.32;;;10.70;99.90;;;;;;5053002;28;20174;-70
2022/01/01 05:48:00;;;;;;;14.32;10.52;;;10.70;99.90;;;;;;5052714;28;20201;-71
2022/01/01 05:50:26;;;;;;;15.27;10.57;;;10.70;99.90;;;;;;5052800;28;20573;-71
2022/01/01 05:52:54;;;;;;;13.05;10.25;;;10.70;99.90;;;;;;5052904;28;20205;-69
2022/01/01 05:55:26;;;;;;;12.10;9.77;;;10.80;99.90;;;;;;5052768;28;20174;-69
2022/01/01 05:57:55;;;;;;;18.27;11.48;;;10.80;99.90;;;;;;5052610;28;20209;-71
2022/01/01 06:00:24;;;;;;;12.38;9.52;;;10.80;99.90;;;;;;5052624;28;20702;-72
2022/01/01 06:02:51;;;;;;;12.85;10.60;;;10.80;99.90;;;;;;5052517;28;20536;-69
2022/01/01 06:05:21;;;;;;;12.27;9.80;;;10.80;99.90;;;;;;5052564;28;20174;-69
2022/01/01 06:08:00;;;;;;;11.73;9.77;;;10.80;99.90;;;;;;5052484;28;20308;-72
2022/01/01 06:10:32;;;;;;;11.45;9.50;;;10.80;99.90;;;;;;5052446;28;20241;-69
2022/01/01 06:13:04;;;;;;;11.15;9.35;;;10.80;99.90;;;;;;5055567;28;20336;-69
2022/01/01 06:15:39;;;;;;;11.73;9.80;;;10.90;99.90;;;;;;5055677;28;20223;-71
2022/01/01 06:18:08;;;;;;;14.18;10.48;;;10.90;99.90;;;;;;5055436;28;20211;-69
2022/01/01 06:20:39;;;;;;;14.32;9.25;;;10.90;99.90;;;;;;5055001;28;20188;-69
2022/01/01 06:23:06;;;;;;;12.10;10.00;;;10.90;99.90;;;;;;5055046;28;20248;-71
2022/01/01 06:25:34;;;;;;;12.30;9.68;;;10.90;99.90;;;;;;5056043;28;20188;-69
2022/01/01 06:28:04;;;;;;;14.45;11.27;;;10.90;99.90;;;;;;5055587;28;20270;-71
2022/01/01 06:30:34;;;;;;;13.20;10.82;;;10.90;99.90;;;;;;5055532;28;20205;-69
2022/01/01 06:33:11;;;;;;;13.40;11.15;;;10.80;99.90;;;;;;5055832;28;20196;-69
2022/01/01 06:35:42;;;;;;;13.32;9.75;;;10.80;99.90;;;;;;5073828;28;20183;-68
2022/01/01 06:38:09;;;;;;;11.93;9.68;;;10.80;99.90;;;;;;5055536;28;20284;-72
2022/01/01 06:40:39;;;;;;;13.27;10.23;;;10.80;99.90;;;;;;5055965;28;20184;-72
2022/01/01 06:43:08;;;;;;;12.93;10.75;;;10.80;99.90;;;;;;5055716;28;20228;-70
2022/01/01 06:45:38;;;;;;;11.95;9.65;;;10.80;99.90;;;;;;5055336;28;20208;-71
2022/01/01 06:48:14;;;;;;;13.55;9.98;;;10.70;99.90;;;;;;5073921;28;20285;-70
2022/01/01 06:50:41;;;;;;;10.25;9.23;;;10.70;99.90;;;;;;5055365;28;20212;-71
2022/01/01 06:53:08;;;;;;;12.73;9.20;;;10.70;99.90;;;;;;5055651;28;20197;-71
2022/01/01 06:55:35;;;;;;;10.75;9.52;;;10.70;99.90;;;;;;5055373;28;20177;-71
2022/01/01 06:58:04;;;;;;;11.32;8.30;;;10.70;99.90;;;;;;5055305;28;20212;-69
2022/01/01 07:00:30;;;;;;;10.73;8.73;;;10.70;99.90;;;;;;5055634;28;20180;-71
2022/01/01 07:02:57;;;;;;;10.68;9.20;;;10.70;99.90;;;;;;5055215;28;20208;-71
2022/01/01 07:05:23;;;;;;;11.32;8.05;;;10.80;99.90;;;;;;5055548;28;20219;-69
2022/01/01 07:07:52;;;;;;;11.88;8.50;;;10.80;99.90;;;;;;5055698;28;20209;-69
2022/01/01 07:10:22;;;;;;;11.88;8.27;;;10.80;99.90;;;;;;5055162;28;20215;-69
2022/01/01 07:12:54;;;;;;;12.10;8.60;;;10.90;99.90;;;;;;5053844;28;20233;-69
2022/01/01 07:15:23;;;;;;;10.45;8.18;;;10.90;99.90;;;;;;5055542;28;20209;-72
2022/01/01 07:17:52;;;;;;;10.52;8.40;;;10.90;99.90;;;;;;5072989;28;20233;-70
2022/01/01 07:20:18;;;;;;;8.95;8.00;;;11.00;99.90;;;;;;5055035;28;20264;-69
2022/01/01 07:22:45;;;;;;;10.38;9.20;;;11.00;99.90;;;;;;5055088;28;20287;-69
2022/01/01 07:25:15;;;;;;;9.05;7.70;;;11.00;99.90;;;;;;5055055;28;20173;-69
2022/01/01 07:27:43;;;;;;;10.10;7.78;;;11.10;99.90;;;;;;5055302;28;20266;-73
2022/01/01 07:30:11;;;;;;;9.05;8.15;;;11.10;99.90;;;;;;5058079;28;20578;-69
2022/01/01 07:32:42;;;;;;;11.07;8.13;;;11.20;99.90;;;;;;5058948;28;20243;-71
2022/01/01 07:35:09;;;;;;;10.82;8.73;;;11.30;99.90;;;;;;5058570;28;20177;-69
2022/01/01 07:37:40;;;;;;;9.25;7.65;;;11.40;99.90;;;;;;5058492;28;20231;-71
2022/01/01 07:40:09;;;;;;;8.65;7.45;;;11.50;99.90;;;;;;5059033;28;20231;-71
2022/01/01 07:42:39;;;;;;;11.60;7.88;;;11.70;99.90;;;;;;5058459;28;20208;-69
2022/01/01 07:45:06;;;;;;;8.50;6.65;;;11.90;99.90;;;;;;5058427;28;20182;-71
2022/01/01 07:47:34;;;;;;;10.48;7.10;;;12.30;99.90;;;;;;5058555;28;20605;-69
2022/01/01 07:50:01;;;;;;;7.23;6.43;;;12.80;99.90;;;;;;5058367;28;20201;-72
2022/01/01 07:52:28;;;;;;;9.00;6.40;;;13.30;99.90;;;;;;5058287;28;20541;-72
2022/01/01 07:55:09;;;;;;;7.60;6.70;;;13.80;99.90;;;;;;5058506;28;20480;-70
2022/01/01 07:57:40;;;;;;;8.40;6.23;;;14.20;99.90;;;;;;5058311;28;20509;-71
2022/01/01 08:00:07;;;;;;;8.90;7.40;;;14.70;99.90;;;;;;5058266;28;20406;-69
2022/01/01 08:02:42;;;;;;;6.67;6.00;;;15.30;99.90;;;;;;5058195;28;20453;-70
2022/01/01 08:05:11;;;;;;;7.23;5.70;;;15.90;99.90;;;;;;5058100;28;20441;-72
2022/01/01 08:07:37;;;;;;;6.67;5.70;;;16.60;99.90;;;;;;5058003;28;20458;-72
2022/01/01 08:10:06;;;;;;;8.03;5.87;;;17.30;99.90;;;;;;5058010;28;20469;-72
2022/01/01 08:12:36;;;;;;;7.37;6.43;;;17.90;99.90;;;;;;5056532;28;20447;-69
2022/01/01 08:15:09;;;;;;;6.93;6.20;;;18.20;99.90;;;;;;5058076;28;20418;-72
2022/01/01 08:17:37;;;;;;;6.73;5.90;;;18.50;99.90;;;;;;5058130;28;20420;-72
2022/01/01 08:20:04;;;;;;;6.67;6.03;;;18.70;99.90;;;;;;5058119;28;20426;-69
2022/01/01 08:22:43;;;;;;;7.07;5.70;;;18.80;99.90;;;;;;5057734;28;20462;-72
2022/01/01 08:25:10;;;;;;;6.77;5.87;;;18.80;99.90;;;;;;5057793;28;20402;-70
2022/01/01 08:27:39;;;;;;;6.13;5.17;;;18.70;99.90;;;;;;5057736;28;20453;-72
2022/01/01 08:30:07;;;;;;;6.03;5.40;;;18.70;99.90;;;;;;5057494;28;20477;-69
2022/01/01 08:32:35;;;;;;;5.13;4.70;;;18.60;99.90;;;;;;5075582;28;20433;-72
2022/01/01 08:35:01;;;;;;;6.03;5.40;;;18.40;99.90;;;;;;5057698;28;20493;-69
2022/01/01 08:37:32;;;;;;;7.17;5.20;;;18.20;99.90;;;;;;5057344;28;20819;-72
2022/01/01 08:39:58;;;;;;;6.17;5.57;;;17.90;99.90;;;;;;5057339;28;20389;-72
2022/01/01 08:42:35;;;;;;;7.17;5.30;;;17.70;99.90;;;;;;5057370;28;20454;-71
2022/01/01 08:45:05;;;;;;;5.40;4.90;;;17.50;99.90;;;;;;5057206;28;20418;-71
2022/01/01 08:47:39;;;;;;;8.00;5.27;;;17.50;99.90;;;;;;5075110;28;20461;-72
2022/01/01 08:50:07;;;;;;;5.20;4.70;;;17.60;99.90;;;;;;5075611;28;20929;-69
2022/01/01 08:52:33;;;;;;;5.40;4.90;;;17.80;99.90;;;;;;5057359;28;20472;-69
2022/01/01 08:55:00;;;;;;;5.77;4.80;;;18.00;99.90;;;;;;5057213;28;20777;-69
2022/01/01 08:57:26;;;;;;;6.73;5.20;;;18.30;99.90;;;;;;5057290;28;20857;-69
2022/01/01 08:59:53;;;;;;;6.70;4.53;;;18.80;99.90;;;;;;5057181;28;20839;-70
2022/01/01 09:02:22;;;;;;;12.70;8.30;;;19.40;99.90;;;;;;5056931;28;20515;-69
2022/01/01 09:04:50;;;;;;;16.70;10.87;;;20.00;99.90;;;;;;5057183;28;20392;-69
2022/01/01 09:07:17;;;;;;;6.10;4.93;;;20.40;99.90;;;;;;5056855;28;20451;-72
2022/01/01 09:09:45;;;;;;;4.70;4.13;;;20.70;99.90;;;;;;5056553;28;20468;-72
2022/01/01 09:12:13;;;;;;;5.37;4.60;;;21.10;99.90;;;;;;5056673;28;20428;-69
2022/01/01 09:14:42;;;;;;;4.20;3.80;;;21.30;99.90;;;;;;5053287;28;20860;-69
2022/01/01 09:17:10;;;;;;;5.63;3.90;;;21.40;99.90;;;;;;5053616;28;20408;-69
2022/01/01 09:19:37;;;;;;;4.80;3.50;;;21.50;99.90;;;;;;5053373;28;20419;-72
2022/01/01 09:22:04;;;;;;;3.70;3.40;;;21.60;99.90;;;;;;5053239;28;20442;-70
2022/01/01 09:24:37;;;;;;;4.40;4.00;;;21.70;99.90;;;;;;5053258;28;20477;-70
2022/01/01 09:27:07;;;;;;;4.27;3.77;;;21.90;99.90;;;;;;5053723;28;20462;-69
2022/01/01 09:29:34;;;;;;;4.40;3.90;;;22.10;99.90;;;;;;5052987;28;20479;-72
2022/01/01 09:32:04;;;;;;;5.30;4.70;;;22.40;99.90;;;;;;5053087;28;20401;-72
2022/01/01 09:34:35;;;;;;;4.27;3.83;;;22.40;99.90;;;;;;5053127;28;20415;-72
2022/01/01 09:37:03;;;;;;;4.47;3.77;;;22.50;99.90;;;;;;5054493;28;20426;-70
2022/01/01 09:39:31;;;;;;;5.60;3.97;;;22.50;99.90;;;;;;5052933;28;20459;-72
2022/01/01 09:41:58;;;;;;;5.00;3.40;;;22.40;99.90;;;;;;5052987;28;20438;-70
2022/01/01 09:44:27;;;;;;;5.17;4.10;;;22.40;99.90;;;;;;5052845;28;20429;-72
2022/01/01 09:46:55;;;;;;;3.97;3.60;;;22.30;99.90;;;;;;5053299;28;20525;-72
2022/01/01 09:49:21;;;;;;;5.20;3.57;;;22.10;99.90;;;;;;5052626;28;20422;-72
2022/01/01 09:51:53;;;;;;;4.27;3.00;;;22.00;99.90;;;;;;5052136;28;20435;-72
2022/01/01 09:54:23;;;;;;;4.23;3.83;;;22.00;99.90;;;;;;5052656;28;20430;-72
2022/01/01 09:56:53;;;;;;;5.00;3.90;;;22.10;99.90;;;;;;5052942;28;20492;-72
2022/01/01 09:59:20;;;;;;;3.70;3.40;;;22.10;99.90;;;;;;5052803;28;20453;-69
2022/01/01 10:01:46;;;;;;;6.53;3.77;;;22.00;99.90;;;;;;5052738;28;20426;-72
2022/01/01 10:04:14;;;;;;;6.00;4.70;;;21.90;99.90;;;;;;5053026;28;20855;-72
2022/01/01 10:07:00;;;;;;;3.73;3.40;;;21.80;99.90;;;;;;5052616;28;20931;-72
2022/01/01 10:09:38;;;;;;;5.17;4.70;;;21.60;99.90;;;;;;5052626;28;20473;-69
2022/01/01 10:12:15;;;;;;;5.20;4.70;;;21.60;99.90;;;;;;5052871;28;20553;-71
2022/01/01 10:14:45;;;;;;;4.17;3.67;;;21.50;99.90;;;;;;5052308;28;20484;-70
2022/01/01 10:17:20;;;;;;;5.50;4.10;;;21.50;99.90;;;;;;5052578;28;20476;-70
2022/01/01 10:19:53;;;;;;;4.57;4.17;;;21.30;99.90;;;;;;5052453;28;20450;-69
2022/01/01 10:22:24;;;;;;;5.00;4.20;;;21.10;99.90;;;;;;5053939;28;20947;-72
2022/01/01 10:28:10;;;;;;;3.67;3.30;;;20.60;99.90;;;;;;5054187;28;20437;-71
2022/01/01 10:30:43;;;;;;;5.67;4.23;;;20.20;99.90;;;;;;5052618;28;20885;-72
2022/01/01 10:33:13;;;;;;;4.50;4.10;;;20.00;99.90;;;;;;5052153;28;21024;-71
2022/01/01 10:35:56;;;;;;;4.13;3.70;;;19.90;99.90;;;;;;5052439;28;20434;-70
2022/01/01 10:38:27;;;;;;;5.60;4.20;;;19.70;99.90;;;;;;5052603;28;20473;-70
2022/01/01 10:40:57;;;;;;;4.07;3.50;;;19.50;99.90;;;;;;5052252;28;20432;-72
2022/01/01 10:43:45;;;;;;;5.00;4.33;;;19.40;99.90;;;;;;5052482;28;20535;-72
2022/01/01 10:46:19;;;;;;;5.83;4.20;;;19.30;99.90;;;;;;5052173;28;20427;-69
2022/01/01 10:48:58;;;;;;;4.80;4.30;;;19.20;99.90;;;;;;5052208;28;20441;-70
2022/01/01 10:51:24;;;;;;;4.60;3.90;;;19.10;99.90;;;;;;5053407;28;20494;-69
2022/01/01 10:54:10;;;;;;;4.30;3.77;;;19.00;99.90;;;;;;5051884;28;20424;-69
2022/01/01 10:56:38;;;;;;;4.50;4.10;;;18.80;99.90;;;;;;5052194;28;20467;-69
2022/01/01 10:59:14;;;;;;;4.30;3.77;;;18.70;99.90;;;;;;5052646;28;20524;-72
2022/01/01 11:01:49;;;;;;;5.60;3.50;;;18.60;99.90;;;;;;5052091;28;20869;-71
2022/01/01 11:04:19;;;;;;;5.70;3.70;;;18.40;99.90;;;;;;5055304;28;20451;-70
2022/01/01 11:06:46;;;;;;;5.50;3.70;;;18.30;99.90;;;;;;5055836;28;20445;-73
2022/01/01 11:09:15;;;;;;;6.10;4.13;;;18.20;99.90;;;;;;5055618;28;20439;-71
2022/01/01 11:11:44;;;;;;;5.23;4.10;;;18.10;99.90;;;;;;5055919;28;20419;-69
2022/01/01 11:14:15;;;;;;;4.70;3.47;;;18.00;99.90;;;;;;5055549;28;20989;-69
2022/01/01 11:16:49;;;;;;;4.40;3.43;;;17.90;99.90;;;;;;5055672;28;20438;-72
2022/01/01 11:19:16;;;;;;;4.87;3.70;;;17.80;99.90;;;;;;5055893;28;20445;-72
2022/01/01 11:21:45;;;;;;;5.33;4.23;;;17.70;99.90;;;;;;5056687;28;20426;-70
2022/01/01 11:24:14;;;;;;;9.07;4.03;;;17.60;99.90;;;;;;5055711;28;20946;-69
2022/01/01 11:26:47;;;;;;;5.53;4.03;;;17.60;99.90;;;;;;5055470;28;20462;-72
2022/01/01 11:29:16;;;;;;;3.83;3.43;;;17.50;99.90;;;;;;5055495;28;20521;-69
2022/01/01 11:31:51;;;;;;;4.37;3.60;;;17.40;99.90;;;;;;5055489;28;20471;-72
2022/01/01 11:34:19;;;;;;;4.47;3.80;;;17.30;99.90;;;;;;5055786;28;20429;-72
2022/01/01 11:36:51;;;;;;;4.43;3.53;;;17.30;99.90;;;;;;5055348;28;20422;-71
2022/01/01 11:39:23;;;;;;;4.00;3.60;;;17.20;99.90;;;;;;5056726;28;20465;-69
2022/01/01 11:42:07;;;;;;;4.93;3.70;;;17.20;99.90;;;;;;5055135;28;20431;-69
2022/01/01 11:44:42;;;;;;;3.53;3.00;;;17.20;99.90;;;;;;5055312;28;20811;-72
2022/01/01 11:47:21;;;;;;;3.67;3.27;;;17.30;99.90;;;;;;5055281;28;20465;-71
2022/01/01 11:49:48;;;;;;;4.30;3.47;;;17.30;99.90;;;;;;5055103;28;20852;-69
2022/01/01 11:52:41;;;;;;;4.33;3.30;;;17.40;99.90;;;;;;5038560;28;20448;-69
2022/01/01 11:55:13;;;;;;;5.57;3.73;;;17.40;99.90;;;;;;5056297;28;20445;-70
2022/01/01 11:57:52;;;;;;;6.30;3.93;;;17.40;99.90;;;;;;5054976;28;20509;-69
2022/01/01 12:00:24;;;;;;;6.13;4.20;;;17.40;99.90;;;;;;5054086;28;20472;-69
2022/01/01 12:03:09;;;;;;;4.07;3.67;;;17.40;99.90;;;;;;5053612;28;20524;-69
2022/01/01 12:05:36;;;;;;;4.50;4.07;;;17.40;99.90;;;;;;5053571;28;20403;-72
2022/01/01 12:08:02;;;;;;;5.30;3.83;;;17.40;99.90;;;;;;5054784;28;20668;-70
2022/01/01 12:10:39;;;;;;;4.67;3.60;;;17.40;99.90;;;;;;5054689;28;20664;-69
2022/01/01 12:13:10;;;;;;;5.33;3.93;;;17.40;99.90;;;;;;5054586;28;20494;-71
2022/01/01 12:15:51;;;;;;;4.20;3.50;;;17.30;99.90;;;;;;5053904;28;20415;-72
2022/01/01 12:18:23;;;;;;;6.67;4.10;;;17.30;99.90;;;;;;5054742;28;20510;-73
2022/01/01 12:21:18;;;;;;;3.80;3.20;;;17.30;99.90;;;;;;5054821;28;20480;-69
2022/01/01 12:23:48;;;;;;;3.93;3.53;;;17.30;99.90;;;;;;5052813;28;20443;-71
2022/01/01 12:26:33;;;;;;;7.50;5.53;;;17.30;99.90;;;;;;5054342;28;20936;-69
2022/01/01 12:29:09;;;;;;;5.13;4.33;;;17.20;99.90;;;;;;5054360;28;20500;-72
2022/01/01 12:31:35;;;;;;;4.13;3.60;;;17.20;99.90;;;;;;5054294;28;20576;-69
2022/01/01 12:34:10;;;;;;;4.60;3.50;;;17.20;99.90;;;;;;5054091;28;20439;-69
2022/01/01 12:36:41;;;;;;;4.27;3.83;;;17.20;99.90;;;;;;5055552;28;20814;-69
2022/01/01 12:39:09;;;;;;;4.67;4.13;;;17.20;99.90;;;;;;5054202;28;20959;-72
2022/01/01 12:41:41;;;;;;;4.27;3.80;;;17.20;99.90;;;;;;5053953;28;20475;-72
2022/01/01 12:44:21;;;;;;;4.43;3.30;;;17.10;99.90;;;;;;5054013;28;20468;-69
2022/01/01 12:47:01;;;;;;;4.43;3.93;;;17.10;99.90;;;;;;5053999;28;20919;-72
2022/01/01 12:49:33;;;;;;;4.03;3.00;;;17.10;99.90;;;;;;5053858;28;20817;-69
2022/01/01 12:52:09;;;;;;;5.07;3.17;;;17.10;99.90;;;;;;5054037;28;20935;-71
2022/01/01 12:54:44;;;;;;;3.03;2.83;;;17.10;99.90;;;;;;5053955;28;20422;-72
2022/01/01 12:57:13;;;;;;;2.77;2.47;;;17.10;99.90;;;;;;5053958;28;20456;-71
2022/01/01 12:59:42;;;;;;;3.60;3.30;;;17.00;99.90;;;;;;5054142;28;20487;-69